createdAt,value
2022-07-28T00:08:48.567Z,0
2022-07-28T00:18:25.530Z,0
2022-07-28T00:28:02.196Z,0
2022-07-28T00:37:39.904Z,0
2022-07-28T00:47:15.727Z,0
2022-07-28T00:56:52.568Z,0
2022-07-28T01:06:29.526Z,0
2022-07-28T01:16:06.735Z,0
2022-07-28T01:35:20.078Z,0
2022-07-28T01:44:56.838Z,0
2022-07-28T01:54:33.594Z,0
2022-07-28T02:13:47.430Z,0
2022-07-28T02:23:24.113Z,0
2022-07-28T02:33:01.324Z,0
2022-07-28T02:42:38.546Z,0
2022-07-28T03:01:52.116Z,1.67
2022-07-28T03:11:28.983Z,5
2022-07-28T03:21:05.993Z,19.17
2022-07-28T03:30:43.076Z,58.33
2022-07-28T03:40:19.842Z,123.33
2022-07-28T03:49:57.290Z,218.33
2022-07-28T03:59:34.358Z,310
2022-07-28T04:38:04.996Z,822.5
2022-07-28T04:47:42.633Z,817.5
2022-07-28T04:57:20.228Z,1050
2022-07-28T05:06:57.958Z,1053.33
2022-07-28T05:16:35.575Z,1063.33
2022-07-28T05:26:13.486Z,1280
2022-07-28T05:45:30.148Z,1356.67
2022-07-28T05:55:06.893Z,1449.17
2022-07-28T06:04:44.607Z,1719.17
2022-07-28T06:14:22.389Z,1074.17
2022-07-28T06:23:59.643Z,945.83
2022-07-28T06:33:37.244Z,1186.67
2022-07-28T06:43:15.107Z,1056.67
2022-07-28T06:52:52.944Z,1100
2022-07-28T07:02:30.670Z,1147.5
2022-07-28T07:12:08.470Z,1149.17
2022-07-28T07:21:46.507Z,1165.83
2022-07-28T07:50:38.772Z,1224.17
2022-07-28T08:00:28.424Z,1264.17
2022-07-28T08:09:54.315Z,1327.5
2022-07-28T08:19:32.233Z,1385.83
2022-07-28T08:29:10.291Z,1451.67
2022-07-28T08:38:48.385Z,1523.33
2022-07-28T08:48:27.062Z,1510.83
2022-07-28T08:58:05.930Z,1680
2022-07-28T09:07:44.512Z,1784.17
2022-07-28T09:17:22.968Z,1888.33
2022-07-28T09:27:01.650Z,2074.17
2022-07-28T09:46:35.777Z,8557.5
2022-07-28T09:56:18.875Z,9139.17
2022-07-28T10:05:59.735Z,11885
2022-07-28T10:15:45.561Z,13585.83
2022-07-28T10:25:23.861Z,12790
2022-07-28T10:35:02.531Z,14621.67
2022-07-28T10:44:44.370Z,16085.83
2022-07-28T10:54:25.926Z,20115
2022-07-28T11:04:00.798Z,17397.5
2022-07-28T11:13:32.884Z,18940.83
2022-07-28T11:23:17.065Z,21091.67
2022-07-28T11:52:18.328Z,23851.67
2022-07-28T12:11:37.301Z,24340.83
2022-07-28T12:21:15.125Z,22948.33
2022-07-28T12:30:54.244Z,22077.5
2022-07-28T12:40:32.229Z,19870
2022-07-28T12:50:07.237Z,22200.83
2022-07-28T12:59:46.231Z,17366.67
2022-07-28T13:09:24.169Z,14547.5
2022-07-28T13:19:04.009Z,18160
2022-07-28T13:28:43.275Z,17940
2022-07-28T13:38:25.397Z,15770.83
2022-07-28T13:47:57.699Z,13703.33
2022-07-28T13:57:35.900Z,13393.33
2022-07-28T14:07:14.498Z,9812.5
2022-07-28T14:16:51.924Z,11585.83
2022-07-28T14:26:38.012Z,10736.67
2022-07-28T14:36:13.704Z,10065.83
2022-07-28T14:45:50.533Z,9310.83
2022-07-28T14:55:26.764Z,7946.67
2022-07-28T15:24:09.167Z,6818.33
2022-07-28T15:33:47.973Z,5325
2022-07-28T15:43:23.691Z,5656.67
2022-07-28T15:52:58.171Z,4823.33
2022-07-28T16:02:35.102Z,4770.83
2022-07-28T16:12:12.882Z,3975
2022-07-28T16:21:47.165Z,3697.5
2022-07-28T16:31:20.398Z,2751.67
2022-07-28T16:40:55.592Z,2352.5
2022-07-28T16:50:31.757Z,2234.17
2022-07-28T17:00:08.506Z,2194.17
2022-07-28T17:09:45.575Z,1440
2022-07-28T17:19:22.488Z,1818.33
2022-07-28T17:28:59.465Z,1609.17
2022-07-28T17:38:36.023Z,1236.67
2022-07-28T17:48:12.624Z,958.33
2022-07-28T18:07:26.497Z,599.17
2022-07-28T18:26:38.996Z,426.67
2022-07-28T18:36:15.881Z,317.5
2022-07-28T18:45:52.707Z,215.83
2022-07-28T18:55:29.212Z,119.17
2022-07-28T19:05:06.184Z,61.67
2022-07-28T19:14:43.172Z,25
2022-07-28T19:24:20.243Z,8.33
2022-07-28T19:43:32.925Z,0.83
2022-07-28T19:53:09.731Z,0
2022-07-28T20:12:22.413Z,0
2022-07-28T20:21:59.468Z,0
2022-07-28T20:31:36.840Z,0
2022-07-28T20:41:13.819Z,0
2022-07-28T20:50:50.993Z,0
2022-07-28T21:00:27.804Z,0
2022-07-28T21:10:04.606Z,0
2022-07-28T21:19:41.449Z,0
2022-07-28T21:38:55.647Z,0
2022-07-28T21:48:32.597Z,0
2022-07-28T21:58:10.134Z,0
2022-07-28T22:07:47.644Z,0
2022-07-28T22:17:24.965Z,0
2022-07-28T22:27:02.246Z,0
2022-07-28T22:36:39.665Z,0
2022-07-28T22:46:16.739Z,0
2022-07-28T22:55:54.466Z,0
2022-07-28T23:05:31.654Z,0
2022-07-28T23:53:38.510Z,0
